sensor_id;sensor_type;location;lat;lon;timestamp;temperature;humidity
4964;DHT22;2497;47.410;9.740;2023-10-08T00:00:32;13.40;99.90
4964;DHT22;2497;47.410;9.740;2023-10-08T00:03:09;13.40;99.90
4964;DHT22;2497;47.410;9.740;2023-10-08T00:05:38;13.30;99.90
4964;DHT22;2497;47.410;9.740;2023-10-08T00:08:05;13.30;99.90
4964;DHT22;2497;47.410;9.740;2023-10-08T00:10:35;13.30;99.90
4964;DHT22;2497;47.410;9.740;2023-10-08T00:13:03;13.30;99.90
4964;DHT22;2497;47.410;9.740;2023-10-08T00:15:34;13.20;99.90
4964;DHT22;2497;47.410;9.740;2023-10-08T00:18:02;13.20;99.90
4964;DHT22;2497;47.410;9.740;2023-10-08T00:20:32;13.20;99.90
4964;DHT22;2497;47.410;9.740;2023-10-08T00:23:09;13.10;99.90
4964;DHT22;2497;47.410;9.740;2023-10-08T00:25:37;13.00;99.90
4964;DHT22;2497;47.410;9.740;2023-10-08T00:28:07;13.10;99.90
4964;DHT22;2497;47.410;9.740;2023-10-08T00:30:39;12.90;99.90
4964;DHT22;2497;47.410;9.740;2023-10-08T00:33:07;12.80;99.90
4964;DHT22;2497;47.410;9.740;2023-10-08T00:35:40;12.70;99.90
4964;DHT22;2497;47.410;9.740;2023-10-08T00:38:09;12.90;99.90
4964;DHT22;2497;47.410;9.740;2023-10-08T00:40:41;12.80;99.90
4964;DHT22;2497;47.410;9.740;2023-10-08T00:45:54;12.80;99.90
4964;DHT22;2497;47.410;9.740;2023-10-08T00:48:25;12.80;99.90
4964;DHT22;2497;47.410;9.740;2023-10-08T00:50:55;12.80;99.90
4964;DHT22;2497;47.410;9.740;2023-10-08T00:53:36;12.90;99.90
4964;DHT22;2497;47.410;9.740;2023-10-08T00:56:05;12.80;99.90
4964;DHT22;2497;47.410;9.740;2023-10-08T00:58:40;12.80;99.90
4964;DHT22;2497;47.410;9.740;2023-10-08T01:01:12;12.90;99.90
4964;DHT22;2497;47.410;9.740;2023-10-08T01:03:42;12.90;99.90
4964;DHT22;2497;47.410;9.740;2023-10-08T01:06:11;12.90;99.90
4964;DHT22;2497;47.410;9.740;2023-10-08T01:08:46;12.70;99.90
4964;DHT22;2497;47.410;9.740;2023-10-08T01:11:19;12.80;99.90
4964;DHT22;2497;47.410;9.740;2023-10-08T01:13:47;12.80;99.90
4964;DHT22;2497;47.410;9.740;2023-10-08T01:16:15;12.70;99.90
4964;DHT22;2497;47.410;9.740;2023-10-08T01:18:44;12.60;99.90
4964;DHT22;2497;47.410;9.740;2023-10-08T01:21:17;12.60;99.90
4964;DHT22;2497;47.410;9.740;2023-10-08T01:24:01;12.60;99.90
4964;DHT22;2497;47.410;9.740;2023-10-08T01:26:34;12.50;99.90
4964;DHT22;2497;47.410;9.740;2023-10-08T01:29:04;12.40;99.90
4964;DHT22;2497;47.410;9.740;2023-10-08T01:31:32;12.40;99.90
4964;DHT22;2497;47.410;9.740;2023-10-08T01:34:00;12.40;99.90
4964;DHT22;2497;47.410;9.740;2023-10-08T01:36:30;12.50;99.90
4964;DHT22;2497;47.410;9.740;2023-10-08T01:38:57;12.50;99.90
4964;DHT22;2497;47.410;9.740;2023-10-08T01:41:29;12.60;99.90
4964;DHT22;2497;47.410;9.740;2023-10-08T01:43:56;12.60;99.90
4964;DHT22;2497;47.410;9.740;2023-10-08T01:46:25;12.60;99.90
4964;DHT22;2497;47.410;9.740;2023-10-08T01:48:53;12.60;99.90
4964;DHT22;2497;47.410;9.740;2023-10-08T01:51:26;12.60;99.90
4964;DHT22;2497;47.410;9.740;2023-10-08T01:54:03;12.60;99.90
4964;DHT22;2497;47.410;9.740;2023-10-08T01:56:38;12.60;99.90
4964;DHT22;2497;47.410;9.740;2023-10-08T01:59:07;12.70;99.90
4964;DHT22;2497;47.410;9.740;2023-10-08T02:01:35;12.60;99.90
4964;DHT22;2497;47.410;9.740;2023-10-08T02:04:04;12.40;99.90
4964;DHT22;2497;47.410;9.740;2023-10-08T02:06:32;12.40;99.90
4964;DHT22;2497;47.410;9.740;2023-10-08T02:08:59;12.30;99.90
4964;DHT22;2497;47.410;9.740;2023-10-08T02:11:40;12.30;99.90
4964;DHT22;2497;47.410;9.740;2023-10-08T02:14:10;12.30;99.90
4964;DHT22;2497;47.410;9.740;2023-10-08T02:16:40;12.30;99.90
4964;DHT22;2497;47.410;9.740;2023-10-08T02:19:09;12.30;99.90
4964;DHT22;2497;47.410;9.740;2023-10-08T02:21:37;12.40;99.90
4964;DHT22;2497;47.410;9.740;2023-10-08T02:24:07;12.40;99.90
4964;DHT22;2497;47.410;9.740;2023-10-08T02:26:36;12.40;99.90
4964;DHT22;2497;47.410;9.740;2023-10-08T02:29:04;12.40;99.90
4964;DHT22;2497;47.410;9.740;2023-10-08T02:31:37;12.40;99.90
4964;DHT22;2497;47.410;9.740;2023-10-08T02:34:05;12.40;99.90
4964;DHT22;2497;47.410;9.740;2023-10-08T02:36:33;12.50;99.90
4964;DHT22;2497;47.410;9.740;2023-10-08T02:39:02;12.50;99.90
4964;DHT22;2497;47.410;9.740;2023-10-08T02:41:42;12.50;99.90
4964;DHT22;2497;47.410;9.740;2023-10-08T02:44:11;12.50;99.90
4964;DHT22;2497;47.410;9.740;2023-10-08T02:46:42;12.50;99.90
4964;DHT22;2497;47.410;9.740;2023-10-08T02:49:10;12.50;99.90
4964;DHT22;2497;47.410;9.740;2023-10-08T02:51:39;12.40;99.90
4964;DHT22;2497;47.410;9.740;2023-10-08T02:54:07;12.50;99.90
4964;DHT22;2497;47.410;9.740;2023-10-08T02:56:43;12.50;99.90
4964;DHT22;2497;47.410;9.740;2023-10-08T02:59:12;12.60;99.90
4964;DHT22;2497;47.410;9.740;2023-10-08T03:01:41;12.60;99.90
4964;DHT22;2497;47.410;9.740;2023-10-08T03:04:09;12.60;99.90
4964;DHT22;2497;47.410;9.740;2023-10-08T03:06:44;12.60;99.90
4964;DHT22;2497;47.410;9.740;2023-10-08T03:09:15;12.50;99.90
4964;DHT22;2497;47.410;9.740;2023-10-08T03:11:47;12.50;99.90
4964;DHT22;2497;47.410;9.740;2023-10-08T03:14:15;12.50;99.90
4964;DHT22;2497;47.410;9.740;2023-10-08T03:16:49;12.60;99.90
4964;DHT22;2497;47.410;9.740;2023-10-08T03:19:18;12.60;99.90
4964;DHT22;2497;47.410;9.740;2023-10-08T03:21:46;12.60;99.90
4964;DHT22;2497;47.410;9.740;2023-10-08T03:24:21;12.60;99.90
4964;DHT22;2497;47.410;9.740;2023-10-08T03:27:03;12.60;99.90
4964;DHT22;2497;47.410;9.740;2023-10-08T03:29:38;12.60;99.90
4964;DHT22;2497;47.410;9.740;2023-10-08T03:32:11;12.60;99.90
4964;DHT22;2497;47.410;9.740;2023-10-08T03:34:44;12.60;99.90
4964;DHT22;2497;47.410;9.740;2023-10-08T03:37:12;12.50;99.90
4964;DHT22;2497;47.410;9.740;2023-10-08T03:39:46;12.60;99.90
4964;DHT22;2497;47.410;9.740;2023-10-08T03:42:27;12.70;99.90
4964;DHT22;2497;47.410;9.740;2023-10-08T03:45:00;12.70;99.90
4964;DHT22;2497;47.410;9.740;2023-10-08T03:47:40;12.60;99.90
4964;DHT22;2497;47.410;9.740;2023-10-08T03:50:12;12.70;99.90
4964;DHT22;2497;47.410;9.740;2023-10-08T03:52:43;12.70;99.90
4964;DHT22;2497;47.410;9.740;2023-10-08T03:55:10;12.60;99.90
4964;DHT22;2497;47.410;9.740;2023-10-08T03:57:52;12.60;99.90
4964;DHT22;2497;47.410;9.740;2023-10-08T04:00:23;12.60;99.90
4964;DHT22;2497;47.410;9.740;2023-10-08T04:02:58;12.50;99.90
4964;DHT22;2497;47.410;9.740;2023-10-08T04:05:34;12.50;99.90
4964;DHT22;2497;47.410;9.740;2023-10-08T04:08:10;12.50;99.90
4964;DHT22;2497;47.410;9.740;2023-10-08T04:10:50;12.50;99.90
4964;DHT22;2497;47.410;9.740;2023-10-08T04:13:48;12.40;99.90
4964;DHT22;2497;47.410;9.740;2023-10-08T04:16:17;12.20;99.90
4964;DHT22;2497;47.410;9.740;2023-10-08T04:18:47;12.20;99.90
4964;DHT22;2497;47.410;9.740;2023-10-08T04:21:18;12.20;99.90
4964;DHT22;2497;47.410;9.740;2023-10-08T04:23:49;12.20;99.90
4964;DHT22;2497;47.410;9.740;2023-10-08T04:26:17;12.10;99.90
4964;DHT22;2497;47.410;9.740;2023-10-08T04:28:50;12.10;99.90
4964;DHT22;2497;47.410;9.740;2023-10-08T04:31:21;12.10;99.90
4964;DHT22;2497;47.410;9.740;2023-10-08T04:33:52;12.10;99.90
4964;DHT22;2497;47.410;9.740;2023-10-08T04:36:19;12.20;99.90
4964;DHT22;2497;47.410;9.740;2023-10-08T04:38:47;12.20;99.90
4964;DHT22;2497;47.410;9.740;2023-10-08T04:41:16;12.20;99.90
4964;DHT22;2497;47.410;9.740;2023-10-08T04:43:45;12.20;99.90
4964;DHT22;2497;47.410;9.740;2023-10-08T04:46:15;12.20;99.90
4964;DHT22;2497;47.410;9.740;2023-10-08T04:49:01;12.20;99.90
4964;DHT22;2497;47.410;9.740;2023-10-08T04:51:35;12.20;99.90
4964;DHT22;2497;47.410;9.740;2023-10-08T04:54:10;12.00;99.90
4964;DHT22;2497;47.410;9.740;2023-10-08T04:56:42;11.80;99.90
4964;DHT22;2497;47.410;9.740;2023-10-08T04:59:09;11.80;99.90
4964;DHT22;2497;47.410;9.740;2023-10-08T05:01:37;11.90;99.90
4964;DHT22;2497;47.410;9.740;2023-10-08T05:04:14;11.80;99.90
4964;DHT22;2497;47.410;9.740;2023-10-08T05:06:58;11.80;99.90
4964;DHT22;2497;47.410;9.740;2023-10-08T05:09:44;11.80;99.90
4964;DHT22;2497;47.410;9.740;2023-10-08T05:12:19;11.80;99.90
4964;DHT22;2497;47.410;9.740;2023-10-08T05:15:04;11.90;99.90
4964;DHT22;2497;47.410;9.740;2023-10-08T05:17:48;11.80;99.90
4964;DHT22;2497;47.410;9.740;2023-10-08T05:20:37;11.70;99.90
4964;DHT22;2497;47.410;9.740;2023-10-08T05:23:21;11.80;99.90
4964;DHT22;2497;47.410;9.740;2023-10-08T05:26:09;11.80;99.90
4964;DHT22;2497;47.410;9.740;2023-10-08T05:28:46;11.80;99.90
4964;DHT22;2497;47.410;9.740;2023-10-08T05:31:27;11.90;99.90
4964;DHT22;2497;47.410;9.740;2023-10-08T05:34:13;11.90;99.90
4964;DHT22;2497;47.410;9.740;2023-10-08T05:36:50;11.80;99.90
4964;DHT22;2497;47.410;9.740;2023-10-08T05:39:16;11.90;99.90
4964;DHT22;2497;47.410;9.740;2023-10-08T05:41:55;11.90;99.90
4964;DHT22;2497;47.410;9.740;2023-10-08T05:44:39;11.90;99.90
4964;DHT22;2497;47.410;9.740;2023-10-08T05:47:09;11.90;99.90
4964;DHT22;2497;47.410;9.740;2023-10-08T05:49:53;11.80;99.90
4964;DHT22;2497;47.410;9.740;2023-10-08T05:52:38;11.90;99.90
4964;DHT22;2497;47.410;9.740;2023-10-08T05:55:18;11.90;99.90
4964;DHT22;2497;47.410;9.740;2023-10-08T05:57:52;11.90;99.90
4964;DHT22;2497;47.410;9.740;2023-10-08T06:00:30;12.00;99.90
4964;DHT22;2497;47.410;9.740;2023-10-08T06:03:11;11.90;99.90
4964;DHT22;2497;47.410;9.740;2023-10-08T06:05:58;12.00;99.90
4964;DHT22;2497;47.410;9.740;2023-10-08T06:08:44;12.00;99.90
4964;DHT22;2497;47.410;9.740;2023-10-08T06:11:29;12.00;99.90
4964;DHT22;2497;47.410;9.740;2023-10-08T06:14:10;12.10;99.90
4964;DHT22;2497;47.410;9.740;2023-10-08T06:16:42;12.10;99.90
4964;DHT22;2497;47.410;9.740;2023-10-08T06:19:11;12.10;99.90
4964;DHT22;2497;47.410;9.740;2023-10-08T06:21:38;12.10;99.90
4964;DHT22;2497;47.410;9.740;2023-10-08T06:24:08;12.00;99.90
4964;DHT22;2497;47.410;9.740;2023-10-08T06:26:37;12.00;99.90
4964;DHT22;2497;47.410;9.740;2023-10-08T06:29:09;12.00;99.90
4964;DHT22;2497;47.410;9.740;2023-10-08T06:31:45;12.30;99.90
4964;DHT22;2497;47.410;9.740;2023-10-08T06:34:17;12.40;99.90
4964;DHT22;2497;47.410;9.740;2023-10-08T06:36:47;12.60;99.90
4964;DHT22;2497;47.410;9.740;2023-10-08T06:39:17;12.80;99.90
4964;DHT22;2497;47.410;9.740;2023-10-08T06:41:45;13.20;99.90
4964;DHT22;2497;47.410;9.740;2023-10-08T06:44:22;13.60;99.90
4964;DHT22;2497;47.410;9.740;2023-10-08T06:46:49;14.10;99.90
4964;DHT22;2497;47.410;9.740;2023-10-08T06:49:18;14.50;99.90
4964;DHT22;2497;47.410;9.740;2023-10-08T06:51:50;14.80;99.90
4964;DHT22;2497;47.410;9.740;2023-10-08T06:54:19;14.70;99.90
4964;DHT22;2497;47.410;9.740;2023-10-08T06:56:48;14.30;99.90
4964;DHT22;2497;47.410;9.740;2023-10-08T06:59:19;14.20;99.90
4964;DHT22;2497;47.410;9.740;2023-10-08T07:01:48;14.70;99.90
4964;DHT22;2497;47.410;9.740;2023-10-08T07:04:17;14.80;99.90
4964;DHT22;2497;47.410;9.740;2023-10-08T07:06:45;15.40;99.90
4964;DHT22;2497;47.410;9.740;2023-10-08T07:09:19;16.00;99.90
4964;DHT22;2497;47.410;9.740;2023-10-08T07:11:55;16.40;99.90
4964;DHT22;2497;47.410;9.740;2023-10-08T07:14:25;16.50;99.90
4964;DHT22;2497;47.410;9.740;2023-10-08T07:16:53;16.10;99.90
4964;DHT22;2497;47.410;9.740;2023-10-08T07:19:21;15.90;99.90
4964;DHT22;2497;47.410;9.740;2023-10-08T07:21:58;15.80;99.90
4964;DHT22;2497;47.410;9.740;2023-10-08T07:24:34;15.80;99.90
4964;DHT22;2497;47.410;9.740;2023-10-08T07:27:03;16.20;99.90
4964;DHT22;2497;47.410;9.740;2023-10-08T07:29:35;16.10;99.90
4964;DHT22;2497;47.410;9.740;2023-10-08T07:32:02;16.00;99.90
4964;DHT22;2497;47.410;9.740;2023-10-08T07:34:35;16.40;99.90
4964;DHT22;2497;47.410;9.740;2023-10-08T07:37:05;16.70;99.90
4964;DHT22;2497;47.410;9.740;2023-10-08T07:39:34;16.70;99.90
4964;DHT22;2497;47.410;9.740;2023-10-08T07:42:09;17.00;99.90
4964;DHT22;2497;47.410;9.740;2023-10-08T07:44:36;17.60;99.90
4964;DHT22;2497;47.410;9.740;2023-10-08T07:47:06;17.50;99.90
4964;DHT22;2497;47.410;9.740;2023-10-08T07:49:38;18.20;99.90
4964;DHT22;2497;47.410;9.740;2023-10-08T07:52:05;18.90;99.90
4964;DHT22;2497;47.410;9.740;2023-10-08T07:54:34;18.60;99.90
4964;DHT22;2497;47.410;9.740;2023-10-08T07:57:04;18.20;99.90
4964;DHT22;2497;47.410;9.740;2023-10-08T07:59:38;18.40;99.90
4964;DHT22;2497;47.410;9.740;2023-10-08T08:02:08;18.50;99.90
4964;DHT22;2497;47.410;9.740;2023-10-08T08:04:39;18.30;99.90
4964;DHT22;2497;47.410;9.740;2023-10-08T08:07:12;18.30;99.90
4964;DHT22;2497;47.410;9.740;2023-10-08T08:09:43;18.40;99.90
4964;DHT22;2497;47.410;9.740;2023-10-08T08:12:16;18.40;99.90
4964;DHT22;2497;47.410;9.740;2023-10-08T08:14:44;18.30;99.90
4964;DHT22;2497;47.410;9.740;2023-10-08T08:17:12;18.40;99.90
4964;DHT22;2497;47.410;9.740;2023-10-08T08:19:42;18.30;99.90
4964;DHT22;2497;47.410;9.740;2023-10-08T08:22:10;18.60;99.90
4964;DHT22;2497;47.410;9.740;2023-10-08T08:24:40;18.70;99.90
4964;DHT22;2497;47.410;9.740;2023-10-08T08:27:12;18.80;99.90
4964;DHT22;2497;47.410;9.740;2023-10-08T08:29:51;18.80;99.90
4964;DHT22;2497;47.410;9.740;2023-10-08T08:32:21;18.60;99.90
4964;DHT22;2497;47.410;9.740;2023-10-08T08:34:49;18.50;99.90
4964;DHT22;2497;47.410;9.740;2023-10-08T08:37:18;18.80;99.90
4964;DHT22;2497;47.410;9.740;2023-10-08T08:39:48;19.20;99.90
4964;DHT22;2497;47.410;9.740;2023-10-08T08:42:22;19.70;99.90
4964;DHT22;2497;47.410;9.740;2023-10-08T08:44:50;19.40;99.90
4964;DHT22;2497;47.410;9.740;2023-10-08T08:47:20;19.60;99.90
4964;DHT22;2497;47.410;9.740;2023-10-08T08:49:51;19.50;99.90
4964;DHT22;2497;47.410;9.740;2023-10-08T08:52:20;20.00;99.90
4964;DHT22;2497;47.410;9.740;2023-10-08T08:54:48;19.80;99.90
4964;DHT22;2497;47.410;9.740;2023-10-08T08:57:18;20.20;99.90
4964;DHT22;2497;47.410;9.740;2023-10-08T08:59:52;20.20;99.90
4964;DHT22;2497;47.410;9.740;2023-10-08T09:02:19;20.30;99.90
4964;DHT22;2497;47.410;9.740;2023-10-08T09:04:48;20.40;99.90
4964;DHT22;2497;47.410;9.740;2023-10-08T09:07:19;20.50;99.90
4964;DHT22;2497;47.410;9.740;2023-10-08T09:09:47;20.50;99.90
4964;DHT22;2497;47.410;9.740;2023-10-08T09:12:17;20.80;99.90
4964;DHT22;2497;47.410;9.740;2023-10-08T09:14:47;21.10;99.90
4964;DHT22;2497;47.410;9.740;2023-10-08T09:17:16;21.10;99.90
4964;DHT22;2497;47.410;9.740;2023-10-08T09:19:43;21.10;99.90
4964;DHT22;2497;47.410;9.740;2023-10-08T09:22:12;21.50;99.90
4964;DHT22;2497;47.410;9.740;2023-10-08T09:24:41;21.30;99.90
4964;DHT22;2497;47.410;9.740;2023-10-08T09:27:09;21.40;99.90
4964;DHT22;2497;47.410;9.740;2023-10-08T09:29:41;22.00;99.90
4964;DHT22;2497;47.410;9.740;2023-10-08T09:32:10;22.30;99.90
4964;DHT22;2497;47.410;9.740;2023-10-08T09:34:39;22.60;99.90
4964;DHT22;2497;47.410;9.740;2023-10-08T09:37:06;22.70;99.90
4964;DHT22;2497;47.410;9.740;2023-10-08T09:39:34;22.70;99.90
4964;DHT22;2497;47.410;9.740;2023-10-08T09:42:02;22.60;99.90
4964;DHT22;2497;47.410;9.740;2023-10-08T09:44:32;22.70;99.90
4964;DHT22;2497;47.410;9.740;2023-10-08T09:47:03;23.10;99.90
4964;DHT22;2497;47.410;9.740;2023-10-08T09:49:32;22.70;99.90
4964;DHT22;2497;47.410;9.740;2023-10-08T09:52:03;22.60;99.90
4964;DHT22;2497;47.410;9.740;2023-10-08T09:54:37;22.70;99.90
4964;DHT22;2497;47.410;9.740;2023-10-08T09:57:06;22.70;99.90
4964;DHT22;2497;47.410;9.740;2023-10-08T09:59:34;22.70;99.90
4964;DHT22;2497;47.410;9.740;2023-10-08T10:02:03;23.20;99.90
4964;DHT22;2497;47.410;9.740;2023-10-08T10:04:43;23.30;99.90
4964;DHT22;2497;47.410;9.740;2023-10-08T10:07:11;23.40;99.90
4964;DHT22;2497;47.410;9.740;2023-10-08T10:09:39;22.80;99.90
4964;DHT22;2497;47.410;9.740;2023-10-08T10:12:11;22.60;99.90
4964;DHT22;2497;47.410;9.740;2023-10-08T10:14:44;22.70;99.90
4964;DHT22;2497;47.410;9.740;2023-10-08T10:17:22;22.90;99.90
4964;DHT22;2497;47.410;9.740;2023-10-08T10:19:53;23.10;99.90
4964;DHT22;2497;47.410;9.740;2023-10-08T10:22:28;23.00;99.90
4964;DHT22;2497;47.410;9.740;2023-10-08T10:24:56;23.60;99.90
4964;DHT22;2497;47.410;9.740;2023-10-08T10:27:25;23.40;99.90
4964;DHT22;2497;47.410;9.740;2023-10-08T10:30:02;23.00;99.90
4964;DHT22;2497;47.410;9.740;2023-10-08T10:32:35;22.80;99.90
4964;DHT22;2497;47.410;9.740;2023-10-08T10:35:06;22.50;99.90
4964;DHT22;2497;47.410;9.740;2023-10-08T10:37:37;22.20;99.90
4964;DHT22;2497;47.410;9.740;2023-10-08T10:40:08;22.00;99.90
4964;DHT22;2497;47.410;9.740;2023-10-08T10:42:38;22.00;99.90
4964;DHT22;2497;47.410;9.740;2023-10-08T10:45:13;21.80;99.90
4964;DHT22;2497;47.410;9.740;2023-10-08T10:48:02;22.00;99.90
4964;DHT22;2497;47.410;9.740;2023-10-08T10:50:39;22.10;99.90
4964;DHT22;2497;47.410;9.740;2023-10-08T10:53:27;22.30;99.90
4964;DHT22;2497;47.410;9.740;2023-10-08T10:55:56;22.10;99.90
4964;DHT22;2497;47.410;9.740;2023-10-08T10:58:30;22.00;99.90
4964;DHT22;2497;47.410;9.740;2023-10-08T11:01:04;22.10;99.90
4964;DHT22;2497;47.410;9.740;2023-10-08T11:03:50;22.50;99.90
4964;DHT22;2497;47.410;9.740;2023-10-08T11:06:18;22.50;99.90
4964;DHT22;2497;47.410;9.740;2023-10-08T11:08:49;22.30;99.90
4964;DHT22;2497;47.410;9.740;2023-10-08T11:11:18;22.40;99.90
4964;DHT22;2497;47.410;9.740;2023-10-08T11:13:45;22.30;99.90
4964;DHT22;2497;47.410;9.740;2023-10-08T11:16:23;22.40;99.90
4964;DHT22;2497;47.410;9.740;2023-10-08T11:18:53;22.60;99.90
4964;DHT22;2497;47.410;9.740;2023-10-08T11:21:23;22.80;99.90
4964;DHT22;2497;47.410;9.740;2023-10-08T11:23:52;22.50;99.90
4964;DHT22;2497;47.410;9.740;2023-10-08T11:26:22;22.50;99.90
4964;DHT22;2497;47.410;9.740;2023-10-08T11:28:58;22.40;99.90
4964;DHT22;2497;47.410;9.740;2023-10-08T11:31:27;22.60;99.90
4964;DHT22;2497;47.410;9.740;2023-10-08T11:34:00;22.70;99.90
4964;DHT22;2497;47.410;9.740;2023-10-08T11:36:35;23.10;99.90
4964;DHT22;2497;47.410;9.740;2023-10-08T11:39:14;23.20;99.90
4964;DHT22;2497;47.410;9.740;2023-10-08T11:41:55;23.30;99.90
4964;DHT22;2497;47.410;9.740;2023-10-08T11:44:22;23.60;99.90
4964;DHT22;2497;47.410;9.740;2023-10-08T11:46:56;23.50;99.90
4964;DHT22;2497;47.410;9.740;2023-10-08T11:49:32;23.40;99.90
4964;DHT22;2497;47.410;9.740;2023-10-08T11:52:02;23.10;99.90
4964;DHT22;2497;47.410;9.740;2023-10-08T11:54:29;22.90;99.90
4964;DHT22;2497;47.410;9.740;2023-10-08T11:56:59;22.80;99.90
4964;DHT22;2497;47.410;9.740;2023-10-08T11:59:27;22.40;99.90
4964;DHT22;2497;47.410;9.740;2023-10-08T12:01:55;22.40;99.90
4964;DHT22;2497;47.410;9.740;2023-10-08T12:04:23;22.60;99.90
4964;DHT22;2497;47.410;9.740;2023-10-08T12:06:51;22.70;99.90
4964;DHT22;2497;47.410;9.740;2023-10-08T12:09:19;22.80;99.90
4964;DHT22;2497;47.410;9.740;2023-10-08T12:11:47;23.20;99.90
4964;DHT22;2497;47.410;9.740;2023-10-08T12:14:14;23.70;99.90
4964;DHT22;2497;47.410;9.740;2023-10-08T12:16:42;24.00;99.90
4964;DHT22;2497;47.410;9.740;2023-10-08T12:19:11;23.90;99.90
4964;DHT22;2497;47.410;9.740;2023-10-08T12:21:42;23.70;99.90
4964;DHT22;2497;47.410;9.740;2023-10-08T12:24:14;23.50;99.90
4964;DHT22;2497;47.410;9.740;2023-10-08T12:26:42;23.60;99.90
4964;DHT22;2497;47.410;9.740;2023-10-08T12:29:12;23.60;99.90
4964;DHT22;2497;47.410;9.740;2023-10-08T12:31:40;23.40;99.90
4964;DHT22;2497;47.410;9.740;2023-10-08T12:34:07;23.20;99.90
4964;DHT22;2497;47.410;9.740;2023-10-08T12:36:37;23.00;99.90
4964;DHT22;2497;47.410;9.740;2023-10-08T12:39:05;22.90;99.90
4964;DHT22;2497;47.410;9.740;2023-10-08T12:41:42;22.80;99.90
4964;DHT22;2497;47.410;9.740;2023-10-08T12:44:09;23.00;99.90
4964;DHT22;2497;47.410;9.740;2023-10-08T12:46:36;22.90;99.90
4964;DHT22;2497;47.410;9.740;2023-10-08T12:49:04;22.90;99.90
4964;DHT22;2497;47.410;9.740;2023-10-08T12:51:32;22.80;99.90
4964;DHT22;2497;47.410;9.740;2023-10-08T12:54:01;22.80;99.90
4964;DHT22;2497;47.410;9.740;2023-10-08T12:56:34;22.60;99.90
4964;DHT22;2497;47.410;9.740;2023-10-08T12:59:11;22.60;99.90
4964;DHT22;2497;47.410;9.740;2023-10-08T13:01:47;22.60;99.90
4964;DHT22;2497;47.410;9.740;2023-10-08T13:04:18;22.50;99.90
4964;DHT22;2497;47.410;9.740;2023-10-08T13:06:53;22.30;99.90
4964;DHT22;2497;47.410;9.740;2023-10-08T13:09:23;22.20;99.90
4964;DHT22;2497;47.410;9.740;2023-10-08T13:11:52;22.20;99.90
4964;DHT22;2497;47.410;9.740;2023-10-08T13:14:23;22.10;99.90
4964;DHT22;2497;47.410;9.740;2023-10-08T13:16:54;22.30;99.90
4964;DHT22;2497;47.410;9.740;2023-10-08T13:19:23;22.40;99.90
4964;DHT22;2497;47.410;9.740;2023-10-08T13:21:53;22.50;99.90
4964;DHT22;2497;47.410;9.740;2023-10-08T13:24:22;22.60;99.90
4964;DHT22;2497;47.410;9.740;2023-10-08T13:26:54;22.60;99.90
4964;DHT22;2497;47.410;9.740;2023-10-08T13:29:26;22.80;99.90
4964;DHT22;2497;47.410;9.740;2023-10-08T13:31:59;22.40;99.90
4964;DHT22;2497;47.410;9.740;2023-10-08T13:34:28;22.20;99.90
4964;DHT22;2497;47.410;9.740;2023-10-08T13:36:56;22.10;99.90
4964;DHT22;2497;47.410;9.740;2023-10-08T13:39:28;22.00;99.90
4964;DHT22;2497;47.410;9.740;2023-10-08T13:41:57;22.00;99.90
4964;DHT22;2497;47.410;9.740;2023-10-08T13:44:29;22.00;99.90
4964;DHT22;2497;47.410;9.740;2023-10-08T13:46:58;21.90;99.90
4964;DHT22;2497;47.410;9.740;2023-10-08T13:49:32;21.80;99.90
4964;DHT22;2497;47.410;9.740;2023-10-08T13:52:00;21.70;99.90
4964;DHT22;2497;47.410;9.740;2023-10-08T13:54:29;21.50;99.90
4964;DHT22;2497;47.410;9.740;2023-10-08T13:57:02;21.50;99.90
4964;DHT22;2497;47.410;9.740;2023-10-08T13:59:35;21.50;99.90
4964;DHT22;2497;47.410;9.740;2023-10-08T14:02:05;21.40;99.90
4964;DHT22;2497;47.410;9.740;2023-10-08T14:04:41;21.50;99.90
4964;DHT22;2497;47.410;9.740;2023-10-08T14:07:10;21.70;99.90
4964;DHT22;2497;47.410;9.740;2023-10-08T14:09:46;21.70;99.90
4964;DHT22;2497;47.410;9.740;2023-10-08T14:12:19;21.60;99.90
4964;DHT22;2497;47.410;9.740;2023-10-08T14:14:50;21.70;99.90
4964;DHT22;2497;47.410;9.740;2023-10-08T14:17:19;21.60;99.90
4964;DHT22;2497;47.410;9.740;2023-10-08T14:20:09;21.50;99.90
4964;DHT22;2497;47.410;9.740;2023-10-08T14:22:41;21.50;99.90
4964;DHT22;2497;47.410;9.740;2023-10-08T14:25:10;21.30;99.90
4964;DHT22;2497;47.410;9.740;2023-10-08T14:27:44;21.60;99.90
4964;DHT22;2497;47.410;9.740;2023-10-08T14:30:20;21.50;99.90
4964;DHT22;2497;47.410;9.740;2023-10-08T14:32:51;21.50;99.90
4964;DHT22;2497;47.410;9.740;2023-10-08T14:35:24;21.50;99.90
4964;DHT22;2497;47.410;9.740;2023-10-08T14:38:09;21.50;99.90
4964;DHT22;2497;47.410;9.740;2023-10-08T14:40:55;21.40;99.90
4964;DHT22;2497;47.410;9.740;2023-10-08T14:43:40;21.40;99.90
4964;DHT22;2497;47.410;9.740;2023-10-08T14:46:11;21.40;99.90
4964;DHT22;2497;47.410;9.740;2023-10-08T14:48:41;21.30;99.90
4964;DHT22;2497;47.410;9.740;2023-10-08T14:51:10;21.30;99.90
4964;DHT22;2497;47.410;9.740;2023-10-08T14:53:47;21.30;99.90
4964;DHT22;2497;47.410;9.740;2023-10-08T14:56:16;21.30;99.90
4964;DHT22;2497;47.410;9.740;2023-10-08T14:58:47;21.40;99.90
4964;DHT22;2497;47.410;9.740;2023-10-08T15:01:18;21.30;99.90
4964;DHT22;2497;47.410;9.740;2023-10-08T15:03:47;21.30;99.90
4964;DHT22;2497;47.410;9.740;2023-10-08T15:06:18;21.40;99.90
4964;DHT22;2497;47.410;9.740;2023-10-08T15:08:47;21.50;99.90
4964;DHT22;2497;47.410;9.740;2023-10-08T15:11:18;21.60;99.90
4964;DHT22;2497;47.410;9.740;2023-10-08T15:13:50;21.60;99.90
4964;DHT22;2497;47.410;9.740;2023-10-08T15:16:22;21.60;99.90
4964;DHT22;2497;47.410;9.740;2023-10-08T15:18:53;21.50;99.90
4964;DHT22;2497;47.410;9.740;2023-10-08T15:21:23;21.50;99.90
4964;DHT22;2497;47.410;9.740;2023-10-08T15:23:56;21.50;99.90
4964;DHT22;2497;47.410;9.740;2023-10-08T15:26:25;21.30;99.90
4964;DHT22;2497;47.410;9.740;2023-10-08T15:28:54;21.20;99.90
4964;DHT22;2497;47.410;9.740;2023-10-08T15:31:24;21.30;99.90
4964;DHT22;2497;47.410;9.740;2023-10-08T15:33:53;21.20;99.90
4964;DHT22;2497;47.410;9.740;2023-10-08T15:36:23;20.90;99.90
4964;DHT22;2497;47.410;9.740;2023-10-08T15:38:53;21.00;99.90
4964;DHT22;2497;47.410;9.740;2023-10-08T15:41:22;21.00;99.90
4964;DHT22;2497;47.410;9.740;2023-10-08T15:43:54;21.10;99.90
4964;DHT22;2497;47.410;9.740;2023-10-08T15:46:31;21.00;99.90
4964;DHT22;2497;47.410;9.740;2023-10-08T15:49:09;21.00;99.90
4964;DHT22;2497;47.410;9.740;2023-10-08T15:51:39;21.00;99.90
4964;DHT22;2497;47.410;9.740;2023-10-08T15:54:08;20.90;99.90
4964;DHT22;2497;47.410;9.740;2023-10-08T15:56:37;20.90;99.90
4964;DHT22;2497;47.410;9.740;2023-10-08T15:59:06;20.80;99.90
4964;DHT22;2497;47.410;9.740;2023-10-08T16:01:37;20.80;99.90
4964;DHT22;2497;47.410;9.740;2023-10-08T16:04:06;20.90;99.90
4964;DHT22;2497;47.410;9.740;2023-10-08T16:06:37;20.80;99.90
4964;DHT22;2497;47.410;9.740;2023-10-08T16:09:05;20.60;99.90
4964;DHT22;2497;47.410;9.740;2023-10-08T16:11:37;20.60;99.90
4964;DHT22;2497;47.410;9.740;2023-10-08T16:14:06;20.60;99.90
4964;DHT22;2497;47.410;9.740;2023-10-08T16:16:39;20.50;99.90
4964;DHT22;2497;47.410;9.740;2023-10-08T16:19:09;20.40;99.90
4964;DHT22;2497;47.410;9.740;2023-10-08T16:21:37;20.40;99.90
4964;DHT22;2497;47.410;9.740;2023-10-08T16:24:07;20.30;99.90
4964;DHT22;2497;47.410;9.740;2023-10-08T16:26:36;20.10;99.90
4964;DHT22;2497;47.410;9.740;2023-10-08T16:29:06;19.90;99.90
4964;DHT22;2497;47.410;9.740;2023-10-08T16:31:42;19.70;99.90
4964;DHT22;2497;47.410;9.740;2023-10-08T16:34:17;19.60;99.90